sensor_id;sensor_type;location;lat;lon;timestamp;P1;durP1;ratioP1;P2;durP2;ratioP2
1601;SDS011;794;48.592;9.634;2023-12-20T00:02:26;0.80;;;0.80;;
1601;SDS011;794;48.592;9.634;2023-12-20T00:04:55;0.80;;;0.80;;
1601;SDS011;794;48.592;9.634;2023-12-20T00:07:22;1.20;;;1.10;;
1601;SDS011;794;48.592;9.634;2023-12-20T00:09:49;0.73;;;0.70;;
1601;SDS011;794;48.592;9.634;2023-12-20T00:12:17;0.80;;;0.70;;
1601;SDS011;794;48.592;9.634;2023-12-20T00:14:44;0.70;;;0.70;;
1601;SDS011;794;48.592;9.634;2023-12-20T00:17:13;0.93;;;0.90;;
1601;SDS011;794;48.592;9.634;2023-12-20T00:19:41;0.90;;;0.90;;
1601;SDS011;794;48.592;9.634;2023-12-20T00:22:09;1.03;;;0.77;;
1601;SDS011;794;48.592;9.634;2023-12-20T00:24:36;1.10;;;1.00;;
1601;SDS011;794;48.592;9.634;2023-12-20T00:27:04;1.30;;;1.20;;
1601;SDS011;794;48.592;9.634;2023-12-20T00:29:33;0.93;;;0.80;;
1601;SDS011;794;48.592;9.634;2023-12-20T00:32:00;0.70;;;0.70;;
1601;SDS011;794;48.592;9.634;2023-12-20T00:34:27;1.43;;;0.70;;
1601;SDS011;794;48.592;9.634;2023-12-20T00:36:58;0.70;;;0.70;;
1601;SDS011;794;48.592;9.634;2023-12-20T00:39:25;0.70;;;0.70;;
1601;SDS011;794;48.592;9.634;2023-12-20T00:41:52;1.30;;;0.90;;
1601;SDS011;794;48.592;9.634;2023-12-20T00:44:20;0.70;;;0.70;;
1601;SDS011;794;48.592;9.634;2023-12-20T00:46:48;0.60;;;0.60;;
1601;SDS011;794;48.592;9.634;2023-12-20T00:49:15;0.70;;;0.70;;
1601;SDS011;794;48.592;9.634;2023-12-20T00:51:42;1.57;;;0.73;;
1601;SDS011;794;48.592;9.634;2023-12-20T00:54:12;0.70;;;0.70;;
1601;SDS011;794;48.592;9.634;2023-12-20T00:56:39;0.70;;;0.70;;
1601;SDS011;794;48.592;9.634;2023-12-20T00:59:07;0.97;;;0.87;;
1601;SDS011;794;48.592;9.634;2023-12-20T01:01:35;1.00;;;0.90;;
1601;SDS011;794;48.592;9.634;2023-12-20T01:04:05;1.10;;;0.70;;
1601;SDS011;794;48.592;9.634;2023-12-20T01:06:32;0.80;;;0.80;;
1601;SDS011;794;48.592;9.634;2023-12-20T01:08:59;0.70;;;0.70;;
1601;SDS011;794;48.592;9.634;2023-12-20T01:11:26;0.80;;;0.80;;
1601;SDS011;794;48.592;9.634;2023-12-20T01:13:53;0.70;;;0.70;;
1601;SDS011;794;48.592;9.634;2023-12-20T01:16:21;0.80;;;0.80;;
1601;SDS011;794;48.592;9.634;2023-12-20T01:18:49;1.10;;;0.50;;
1601;SDS011;794;48.592;9.634;2023-12-20T01:21:18;0.60;;;0.60;;
1601;SDS011;794;48.592;9.634;2023-12-20T01:23:47;0.60;;;0.50;;
1601;SDS011;794;48.592;9.634;2023-12-20T01:26:14;0.77;;;0.70;;
1601;SDS011;794;48.592;9.634;2023-12-20T01:28:41;0.80;;;0.80;;
1601;SDS011;794;48.592;9.634;2023-12-20T01:31:08;1.03;;;0.77;;
1601;SDS011;794;48.592;9.634;2023-12-20T01:33:35;0.80;;;0.70;;
1601;SDS011;794;48.592;9.634;2023-12-20T01:36:03;1.27;;;0.60;;
1601;SDS011;794;48.592;9.634;2023-12-20T01:38:31;0.60;;;0.60;;
1601;SDS011;794;48.592;9.634;2023-12-20T01:41:00;0.60;;;0.60;;
1601;SDS011;794;48.592;9.634;2023-12-20T01:43:27;0.70;;;0.70;;
1601;SDS011;794;48.592;9.634;2023-12-20T01:45:57;0.80;;;0.80;;
1601;SDS011;794;48.592;9.634;2023-12-20T01:48:24;0.70;;;0.63;;
1601;SDS011;794;48.592;9.634;2023-12-20T01:50:59;0.70;;;0.63;;
1601;SDS011;794;48.592;9.634;2023-12-20T01:53:27;1.03;;;0.70;;
1601;SDS011;794;48.592;9.634;2023-12-20T01:55:56;0.60;;;0.53;;
1601;SDS011;794;48.592;9.634;2023-12-20T01:58:25;0.63;;;0.60;;
1601;SDS011;794;48.592;9.634;2023-12-20T02:00:58;3.10;;;0.63;;
1601;SDS011;794;48.592;9.634;2023-12-20T02:03:30;0.50;;;0.50;;
1601;SDS011;794;48.592;9.634;2023-12-20T02:05:59;0.70;;;0.60;;
1601;SDS011;794;48.592;9.634;2023-12-20T02:08:26;0.60;;;0.60;;
1601;SDS011;794;48.592;9.634;2023-12-20T02:10:59;0.70;;;0.50;;
1601;SDS011;794;48.592;9.634;2023-12-20T02:13:26;1.27;;;0.60;;
1601;SDS011;794;48.592;9.634;2023-12-20T02:15:55;0.50;;;0.50;;
1601;SDS011;794;48.592;9.634;2023-12-20T02:18:22;1.30;;;0.60;;
1601;SDS011;794;48.592;9.634;2023-12-20T02:20:49;0.50;;;0.50;;
1601;SDS011;794;48.592;9.634;2023-12-20T02:23:18;0.70;;;0.60;;
1601;SDS011;794;48.592;9.634;2023-12-20T02:25:47;0.60;;;0.57;;
1601;SDS011;794;48.592;9.634;2023-12-20T02:28:14;0.70;;;0.70;;
1601;SDS011;794;48.592;9.634;2023-12-20T02:30:44;0.80;;;0.67;;
1601;SDS011;794;48.592;9.634;2023-12-20T02:33:11;0.90;;;0.67;;
1601;SDS011;794;48.592;9.634;2023-12-20T02:35:40;0.40;;;0.40;;
1601;SDS011;794;48.592;9.634;2023-12-20T02:38:07;0.50;;;0.50;;
1601;SDS011;794;48.592;9.634;2023-12-20T02:40:38;0.70;;;0.57;;
1601;SDS011;794;48.592;9.634;2023-12-20T02:43:07;0.60;;;0.50;;
1601;SDS011;794;48.592;9.634;2023-12-20T02:45:34;0.50;;;0.50;;
1601;SDS011;794;48.592;9.634;2023-12-20T02:48:04;0.50;;;0.50;;
1601;SDS011;794;48.592;9.634;2023-12-20T02:50:31;0.47;;;0.40;;
1601;SDS011;794;48.592;9.634;2023-12-20T02:52:58;0.40;;;0.40;;
1601;SDS011;794;48.592;9.634;2023-12-20T02:55:27;0.40;;;0.37;;
1601;SDS011;794;48.592;9.634;2023-12-20T02:57:57;0.60;;;0.50;;
1601;SDS011;794;48.592;9.634;2023-12-20T03:00:24;0.50;;;0.50;;
1601;SDS011;794;48.592;9.634;2023-12-20T03:02:51;0.70;;;0.70;;
1601;SDS011;794;48.592;9.634;2023-12-20T03:05:19;0.60;;;0.50;;
1601;SDS011;794;48.592;9.634;2023-12-20T03:07:48;0.60;;;0.60;;
1601;SDS011;794;48.592;9.634;2023-12-20T03:10:16;0.50;;;0.50;;
1601;SDS011;794;48.592;9.634;2023-12-20T03:12:43;0.50;;;0.50;;
1601;SDS011;794;48.592;9.634;2023-12-20T03:15:11;0.50;;;0.40;;
1601;SDS011;794;48.592;9.634;2023-12-20T03:17:38;0.50;;;0.50;;
1601;SDS011;794;48.592;9.634;2023-12-20T03:20:06;2.13;;;0.60;;
1601;SDS011;794;48.592;9.634;2023-12-20T03:22:34;0.53;;;0.50;;
1601;SDS011;794;48.592;9.634;2023-12-20T03:25:01;0.80;;;0.80;;
1601;SDS011;794;48.592;9.634;2023-12-20T03:27:30;0.57;;;0.57;;
1601;SDS011;794;48.592;9.634;2023-12-20T03:29:57;0.50;;;0.50;;
1601;SDS011;794;48.592;9.634;2023-12-20T03:32:28;0.50;;;0.50;;
1601;SDS011;794;48.592;9.634;2023-12-20T03:34:55;0.50;;;0.50;;
1601;SDS011;794;48.592;9.634;2023-12-20T03:37:21;0.60;;;0.60;;
1601;SDS011;794;48.592;9.634;2023-12-20T03:39:50;0.50;;;0.50;;
1601;SDS011;794;48.592;9.634;2023-12-20T03:42:19;1.67;;;1.57;;
1601;SDS011;794;48.592;9.634;2023-12-20T03:44:46;0.70;;;0.70;;
1601;SDS011;794;48.592;9.634;2023-12-20T03:47:12;0.60;;;0.60;;
1601;SDS011;794;48.592;9.634;2023-12-20T03:49:41;0.77;;;0.77;;
1601;SDS011;794;48.592;9.634;2023-12-20T03:52:08;0.60;;;0.60;;
1601;SDS011;794;48.592;9.634;2023-12-20T03:54:37;0.50;;;0.50;;
1601;SDS011;794;48.592;9.634;2023-12-20T03:57:04;0.63;;;0.63;;
1601;SDS011;794;48.592;9.634;2023-12-20T03:59:34;0.57;;;0.57;;
1601;SDS011;794;48.592;9.634;2023-12-20T04:02:02;0.53;;;0.53;;
1601;SDS011;794;48.592;9.634;2023-12-20T04:04:31;0.50;;;0.50;;
1601;SDS011;794;48.592;9.634;2023-12-20T04:07:01;0.50;;;0.50;;
1601;SDS011;794;48.592;9.634;2023-12-20T04:09:28;0.50;;;0.40;;
1601;SDS011;794;48.592;9.634;2023-12-20T04:11:55;0.53;;;0.53;;
1601;SDS011;794;48.592;9.634;2023-12-20T04:14:21;0.50;;;0.47;;
1601;SDS011;794;48.592;9.634;2023-12-20T04:16:50;0.60;;;0.50;;
1601;SDS011;794;48.592;9.634;2023-12-20T04:19:16;0.60;;;0.60;;
1601;SDS011;794;48.592;9.634;2023-12-20T04:21:43;0.70;;;0.70;;
1601;SDS011;794;48.592;9.634;2023-12-20T04:24:12;2.30;;;0.60;;
1601;SDS011;794;48.592;9.634;2023-12-20T04:26:39;0.60;;;0.60;;
1601;SDS011;794;48.592;9.634;2023-12-20T04:29:06;0.67;;;0.60;;
1601;SDS011;794;48.592;9.634;2023-12-20T04:31:35;0.73;;;0.73;;
1601;SDS011;794;48.592;9.634;2023-12-20T04:34:02;0.50;;;0.50;;
1601;SDS011;794;48.592;9.634;2023-12-20T04:36:29;0.70;;;0.60;;
1601;SDS011;794;48.592;9.634;2023-12-20T04:38:56;0.80;;;0.80;;
1601;SDS011;794;48.592;9.634;2023-12-20T04:41:26;0.60;;;0.60;;
1601;SDS011;794;48.592;9.634;2023-12-20T04:43:53;0.60;;;0.60;;
1601;SDS011;794;48.592;9.634;2023-12-20T04:46:19;0.60;;;0.60;;
1601;SDS011;794;48.592;9.634;2023-12-20T04:48:46;0.80;;;0.60;;
1601;SDS011;794;48.592;9.634;2023-12-20T04:51:16;0.57;;;0.57;;
1601;SDS011;794;48.592;9.634;2023-12-20T04:53:43;0.70;;;0.50;;
1601;SDS011;794;48.592;9.634;2023-12-20T04:56:09;1.53;;;0.60;;
1601;SDS011;794;48.592;9.634;2023-12-20T04:58:38;0.53;;;0.53;;
1601;SDS011;794;48.592;9.634;2023-12-20T05:01:05;0.60;;;0.50;;
1601;SDS011;794;48.592;9.634;2023-12-20T05:03:35;0.77;;;0.60;;
1601;SDS011;794;48.592;9.634;2023-12-20T05:06:02;1.10;;;0.60;;
1601;SDS011;794;48.592;9.634;2023-12-20T05:08:29;0.50;;;0.50;;
1601;SDS011;794;48.592;9.634;2023-12-20T05:10:56;0.60;;;0.47;;
1601;SDS011;794;48.592;9.634;2023-12-20T05:13:24;0.40;;;0.40;;
1601;SDS011;794;48.592;9.634;2023-12-20T05:15:54;0.50;;;0.50;;
1601;SDS011;794;48.592;9.634;2023-12-20T05:18:27;0.53;;;0.50;;
1601;SDS011;794;48.592;9.634;2023-12-20T05:20:54;0.60;;;0.60;;
1601;SDS011;794;48.592;9.634;2023-12-20T05:23:28;0.50;;;0.47;;
1601;SDS011;794;48.592;9.634;2023-12-20T05:25:55;1.07;;;0.60;;
1601;SDS011;794;48.592;9.634;2023-12-20T05:28:22;1.00;;;0.70;;
1601;SDS011;794;48.592;9.634;2023-12-20T05:30:48;0.47;;;0.47;;
1601;SDS011;794;48.592;9.634;2023-12-20T05:33:17;4.70;;;2.87;;
1601;SDS011;794;48.592;9.634;2023-12-20T05:35:44;1.70;;;1.60;;
1601;SDS011;794;48.592;9.634;2023-12-20T05:38:11;1.30;;;1.20;;
1601;SDS011;794;48.592;9.634;2023-12-20T05:40:38;4.93;;;4.00;;
1601;SDS011;794;48.592;9.634;2023-12-20T05:43:05;0.90;;;0.80;;
1601;SDS011;794;48.592;9.634;2023-12-20T05:45:31;0.87;;;0.87;;
1601;SDS011;794;48.592;9.634;2023-12-20T05:47:59;0.80;;;0.80;;
1601;SDS011;794;48.592;9.634;2023-12-20T05:50:27;0.83;;;0.70;;
1601;SDS011;794;48.592;9.634;2023-12-20T05:52:54;0.60;;;0.53;;
1601;SDS011;794;48.592;9.634;2023-12-20T05:55:21;0.50;;;0.40;;
1601;SDS011;794;48.592;9.634;2023-12-20T05:57:49;2.07;;;1.97;;
1601;SDS011;794;48.592;9.634;2023-12-20T06:00:19;0.80;;;0.77;;
1601;SDS011;794;48.592;9.634;2023-12-20T06:02:46;0.57;;;0.50;;
1601;SDS011;794;48.592;9.634;2023-12-20T06:05:16;0.60;;;0.50;;
1601;SDS011;794;48.592;9.634;2023-12-20T06:07:44;0.60;;;0.50;;
1601;SDS011;794;48.592;9.634;2023-12-20T06:10:16;0.40;;;0.40;;
1601;SDS011;794;48.592;9.634;2023-12-20T06:12:43;0.50;;;0.50;;
1601;SDS011;794;48.592;9.634;2023-12-20T06:15:13;0.80;;;0.80;;
1601;SDS011;794;48.592;9.634;2023-12-20T06:17:40;0.67;;;0.67;;
1601;SDS011;794;48.592;9.634;2023-12-20T06:20:15;0.60;;;0.60;;
1601;SDS011;794;48.592;9.634;2023-12-20T06:22:47;1.53;;;1.20;;
1601;SDS011;794;48.592;9.634;2023-12-20T06:25:14;0.73;;;0.70;;
1601;SDS011;794;48.592;9.634;2023-12-20T06:27:44;0.50;;;0.50;;
1601;SDS011;794;48.592;9.634;2023-12-20T06:30:13;0.70;;;0.70;;
1601;SDS011;794;48.592;9.634;2023-12-20T06:32:44;0.50;;;0.50;;
1601;SDS011;794;48.592;9.634;2023-12-20T06:35:12;2.20;;;0.83;;
1601;SDS011;794;48.592;9.634;2023-12-20T06:37:41;0.60;;;0.60;;
1601;SDS011;794;48.592;9.634;2023-12-20T06:40:10;0.70;;;0.60;;
1601;SDS011;794;48.592;9.634;2023-12-20T06:42:38;2.37;;;0.77;;
1601;SDS011;794;48.592;9.634;2023-12-20T06:45:05;1.43;;;0.60;;
1601;SDS011;794;48.592;9.634;2023-12-20T06:47:32;0.93;;;0.87;;
1601;SDS011;794;48.592;9.634;2023-12-20T06:50:00;0.83;;;0.83;;
1601;SDS011;794;48.592;9.634;2023-12-20T06:52:28;1.00;;;0.80;;
1601;SDS011;794;48.592;9.634;2023-12-20T06:54:55;1.23;;;0.77;;
1601;SDS011;794;48.592;9.634;2023-12-20T06:57:23;0.57;;;0.57;;
1601;SDS011;794;48.592;9.634;2023-12-20T06:59:53;0.70;;;0.70;;
1601;SDS011;794;48.592;9.634;2023-12-20T07:02:20;0.60;;;0.60;;
1601;SDS011;794;48.592;9.634;2023-12-20T07:04:47;0.50;;;0.50;;
1601;SDS011;794;48.592;9.634;2023-12-20T07:07:14;0.70;;;0.70;;
1601;SDS011;794;48.592;9.634;2023-12-20T07:09:43;0.67;;;0.67;;
1601;SDS011;794;48.592;9.634;2023-12-20T07:12:10;1.50;;;0.60;;
1601;SDS011;794;48.592;9.634;2023-12-20T07:14:39;0.57;;;0.57;;
1601;SDS011;794;48.592;9.634;2023-12-20T07:17:06;0.70;;;0.70;;
1601;SDS011;794;48.592;9.634;2023-12-20T07:19:36;0.50;;;0.50;;
1601;SDS011;794;48.592;9.634;2023-12-20T07:22:03;0.70;;;0.70;;
1601;SDS011;794;48.592;9.634;2023-12-20T07:24:30;0.80;;;0.70;;
1601;SDS011;794;48.592;9.634;2023-12-20T07:27:01;0.80;;;0.80;;
1601;SDS011;794;48.592;9.634;2023-12-20T07:29:29;1.63;;;0.70;;
1601;SDS011;794;48.592;9.634;2023-12-20T07:31:59;0.90;;;0.80;;
1601;SDS011;794;48.592;9.634;2023-12-20T07:34:31;0.60;;;0.53;;
1601;SDS011;794;48.592;9.634;2023-12-20T07:36:58;1.03;;;0.63;;
1601;SDS011;794;48.592;9.634;2023-12-20T07:39:25;0.70;;;0.70;;
1601;SDS011;794;48.592;9.634;2023-12-20T07:41:56;3.33;;;0.60;;
1601;SDS011;794;48.592;9.634;2023-12-20T07:44:27;0.60;;;0.60;;
1601;SDS011;794;48.592;9.634;2023-12-20T07:46:54;0.97;;;0.50;;
1601;SDS011;794;48.592;9.634;2023-12-20T07:49:31;0.50;;;0.50;;
1601;SDS011;794;48.592;9.634;2023-12-20T07:51:58;0.47;;;0.47;;
1601;SDS011;794;48.592;9.634;2023-12-20T07:54:25;0.60;;;0.60;;
1601;SDS011;794;48.592;9.634;2023-12-20T07:56:52;0.77;;;0.77;;
1601;SDS011;794;48.592;9.634;2023-12-20T07:59:20;1.23;;;0.90;;
1601;SDS011;794;48.592;9.634;2023-12-20T08:01:47;0.60;;;0.60;;
1601;SDS011;794;48.592;9.634;2023-12-20T08:04:18;0.97;;;0.97;;
1601;SDS011;794;48.592;9.634;2023-12-20T08:06:50;1.20;;;1.10;;
1601;SDS011;794;48.592;9.634;2023-12-20T08:09:23;1.40;;;1.30;;
1601;SDS011;794;48.592;9.634;2023-12-20T08:11:57;1.93;;;1.83;;
1601;SDS011;794;48.592;9.634;2023-12-20T08:14:28;1.03;;;1.03;;
1601;SDS011;794;48.592;9.634;2023-12-20T08:16:57;1.23;;;1.13;;
1601;SDS011;794;48.592;9.634;2023-12-20T08:19:26;0.70;;;0.60;;
1601;SDS011;794;48.592;9.634;2023-12-20T08:22:02;0.70;;;0.70;;
1601;SDS011;794;48.592;9.634;2023-12-20T08:24:30;1.53;;;1.10;;
1601;SDS011;794;48.592;9.634;2023-12-20T08:26:57;1.13;;;0.73;;
1601;SDS011;794;48.592;9.634;2023-12-20T08:29:29;0.60;;;0.60;;
1601;SDS011;794;48.592;9.634;2023-12-20T08:31:58;1.03;;;0.93;;
1601;SDS011;794;48.592;9.634;2023-12-20T08:34:32;0.90;;;0.90;;
1601;SDS011;794;48.592;9.634;2023-12-20T08:36:59;1.27;;;1.17;;
1601;SDS011;794;48.592;9.634;2023-12-20T08:39:28;1.20;;;1.20;;
1601;SDS011;794;48.592;9.634;2023-12-20T08:41:58;0.80;;;0.80;;
1601;SDS011;794;48.592;9.634;2023-12-20T08:44:28;1.10;;;1.10;;
1601;SDS011;794;48.592;9.634;2023-12-20T08:46:56;1.27;;;0.80;;
1601;SDS011;794;48.592;9.634;2023-12-20T08:49:25;2.20;;;1.80;;
1601;SDS011;794;48.592;9.634;2023-12-20T08:52:04;1.70;;;1.60;;
1601;SDS011;794;48.592;9.634;2023-12-20T08:54:32;2.10;;;1.90;;
1601;SDS011;794;48.592;9.634;2023-12-20T08:57:00;1.87;;;1.77;;
1601;SDS011;794;48.592;9.634;2023-12-20T08:59:32;3.00;;;2.80;;
1601;SDS011;794;48.592;9.634;2023-12-20T09:02:01;1.97;;;1.83;;
1601;SDS011;794;48.592;9.634;2023-12-20T09:04:28;1.90;;;1.80;;
1601;SDS011;794;48.592;9.634;2023-12-20T09:06:59;2.60;;;2.40;;
1601;SDS011;794;48.592;9.634;2023-12-20T09:09:32;2.93;;;2.73;;
1601;SDS011;794;48.592;9.634;2023-12-20T09:12:02;2.57;;;2.37;;
1601;SDS011;794;48.592;9.634;2023-12-20T09:14:30;3.03;;;2.40;;
1601;SDS011;794;48.592;9.634;2023-12-20T09:17:04;2.50;;;2.30;;
1601;SDS011;794;48.592;9.634;2023-12-20T09:19:35;1.97;;;1.87;;
1601;SDS011;794;48.592;9.634;2023-12-20T09:22:10;2.90;;;2.70;;
1601;SDS011;794;48.592;9.634;2023-12-20T09:24:49;2.30;;;2.20;;
1601;SDS011;794;48.592;9.634;2023-12-20T09:27:18;2.93;;;2.73;;
1601;SDS011;794;48.592;9.634;2023-12-20T09:29:46;5.20;;;3.53;;
1601;SDS011;794;48.592;9.634;2023-12-20T09:32:16;2.83;;;2.30;;
1601;SDS011;794;48.592;9.634;2023-12-20T09:34:45;6.63;;;4.90;;
1601;SDS011;794;48.592;9.634;2023-12-20T09:37:14;7.83;;;5.77;;
1601;SDS011;794;48.592;9.634;2023-12-20T09:39:43;5.13;;;4.63;;
1601;SDS011;794;48.592;9.634;2023-12-20T09:42:14;5.53;;;3.83;;
1601;SDS011;794;48.592;9.634;2023-12-20T09:44:52;4.23;;;3.93;;
1601;SDS011;794;48.592;9.634;2023-12-20T09:47:24;3.40;;;3.00;;
1601;SDS011;794;48.592;9.634;2023-12-20T09:49:52;3.30;;;3.00;;
1601;SDS011;794;48.592;9.634;2023-12-20T09:52:23;3.70;;;3.40;;
1601;SDS011;794;48.592;9.634;2023-12-20T09:54:55;4.03;;;3.70;;
1601;SDS011;794;48.592;9.634;2023-12-20T09:57:25;2.70;;;2.50;;
1601;SDS011;794;48.592;9.634;2023-12-20T09:59:56;3.70;;;2.67;;
1601;SDS011;794;48.592;9.634;2023-12-20T10:02:26;3.37;;;3.07;;
1601;SDS011;794;48.592;9.634;2023-12-20T10:04:58;3.37;;;3.10;;
1601;SDS011;794;48.592;9.634;2023-12-20T10:07:34;3.17;;;2.87;;
1601;SDS011;794;48.592;9.634;2023-12-20T10:10:01;4.83;;;3.07;;
1601;SDS011;794;48.592;9.634;2023-12-20T10:12:37;2.60;;;2.40;;
1601;SDS011;794;48.592;9.634;2023-12-20T10:15:12;2.50;;;2.30;;
1601;SDS011;794;48.592;9.634;2023-12-20T10:17:54;4.47;;;1.90;;
1601;SDS011;794;48.592;9.634;2023-12-20T10:20:29;4.03;;;2.23;;
1601;SDS011;794;48.592;9.634;2023-12-20T10:26:15;3.37;;;3.17;;
1601;SDS011;794;48.592;9.634;2023-12-20T10:28:46;3.13;;;1.60;;
1601;SDS011;794;48.592;9.634;2023-12-20T10:31:44;1.60;;;1.50;;
1601;SDS011;794;48.592;9.634;2023-12-20T10:34:32;3.33;;;2.20;;
1601;SDS011;794;48.592;9.634;2023-12-20T10:37:08;2.60;;;1.87;;
1601;SDS011;794;48.592;9.634;2023-12-20T10:39:42;2.63;;;2.00;;
1601;SDS011;794;48.592;9.634;2023-12-20T10:42:34;3.53;;;2.27;;
1601;SDS011;794;48.592;9.634;2023-12-20T10:45:06;4.20;;;2.33;;
1601;SDS011;794;48.592;9.634;2023-12-20T10:47:46;4.77;;;1.77;;
1601;SDS011;794;48.592;9.634;2023-12-20T10:50:30;5.70;;;2.30;;
1601;SDS011;794;48.592;9.634;2023-12-20T10:53:17;2.67;;;1.97;;
1601;SDS011;794;48.592;9.634;2023-12-20T10:55:47;2.80;;;2.10;;
1601;SDS011;794;48.592;9.634;2023-12-20T10:58:19;5.47;;;2.33;;
1601;SDS011;794;48.592;9.634;2023-12-20T11:00:49;2.87;;;2.10;;
1601;SDS011;794;48.592;9.634;2023-12-20T11:03:35;3.80;;;1.60;;
1601;SDS011;794;48.592;9.634;2023-12-20T11:06:13;7.93;;;1.70;;
1601;SDS011;794;48.592;9.634;2023-12-20T11:08:58;3.63;;;2.63;;
1601;SDS011;794;48.592;9.634;2023-12-20T11:11:37;4.23;;;1.90;;
1601;SDS011;794;48.592;9.634;2023-12-20T11:14:14;9.03;;;6.13;;
1601;SDS011;794;48.592;9.634;2023-12-20T11:16:51;3.70;;;2.53;;
1601;SDS011;794;48.592;9.634;2023-12-20T11:19:38;3.37;;;2.00;;
1601;SDS011;794;48.592;9.634;2023-12-20T11:22:30;2.20;;;1.50;;
1601;SDS011;794;48.592;9.634;2023-12-20T11:25:03;6.20;;;2.00;;
1601;SDS011;794;48.592;9.634;2023-12-20T11:27:36;5.53;;;1.90;;
1601;SDS011;794;48.592;9.634;2023-12-20T11:30:06;5.53;;;2.70;;
1601;SDS011;794;48.592;9.634;2023-12-20T11:32:40;5.33;;;3.23;;
1601;SDS011;794;48.592;9.634;2023-12-20T11:35:29;3.33;;;2.10;;
1601;SDS011;794;48.592;9.634;2023-12-20T11:38:33;3.57;;;2.03;;
1601;SDS011;794;48.592;9.634;2023-12-20T11:44:41;2.60;;;1.70;;
1601;SDS011;794;48.592;9.634;2023-12-20T11:47:33;4.17;;;1.87;;
1601;SDS011;794;48.592;9.634;2023-12-20T11:50:21;5.83;;;1.97;;
1601;SDS011;794;48.592;9.634;2023-12-20T11:53:16;3.20;;;2.80;;
1601;SDS011;794;48.592;9.634;2023-12-20T11:56:36;4.47;;;2.10;;
1601;SDS011;794;48.592;9.634;2023-12-20T12:11:41;5.70;;;2.00;;
1601;SDS011;794;48.592;9.634;2023-12-20T12:13:27;2.90;;;1.90;;
1601;SDS011;794;48.592;9.634;2023-12-20T12:16:04;5.03;;;1.60;;
1601;SDS011;794;48.592;9.634;2023-12-20T12:18:54;5.80;;;1.80;;
1601;SDS011;794;48.592;9.634;2023-12-20T12:21:26;2.10;;;1.63;;
1601;SDS011;794;48.592;9.634;2023-12-20T12:27:15;3.70;;;1.40;;
1601;SDS011;794;48.592;9.634;2023-12-20T12:30:06;1.57;;;1.37;;
1601;SDS011;794;48.592;9.634;2023-12-20T12:32:38;2.10;;;1.17;;
1601;SDS011;794;48.592;9.634;2023-12-20T12:35:22;2.90;;;1.57;;
1601;SDS011;794;48.592;9.634;2023-12-20T12:37:55;1.40;;;1.30;;
1601;SDS011;794;48.592;9.634;2023-12-20T12:41:40;4.03;;;2.03;;
1601;SDS011;794;48.592;9.634;2023-12-20T12:43:37;8.10;;;1.70;;
1601;SDS011;794;48.592;9.634;2023-12-20T12:46:22;4.37;;;1.33;;
1601;SDS011;794;48.592;9.634;2023-12-20T12:48:55;1.80;;;1.40;;
1601;SDS011;794;48.592;9.634;2023-12-20T12:54:15;6.13;;;2.30;;
1601;SDS011;794;48.592;9.634;2023-12-20T12:56:44;1.93;;;1.60;;
1601;SDS011;794;48.592;9.634;2023-12-20T12:59:13;4.50;;;1.87;;
1601;SDS011;794;48.592;9.634;2023-12-20T13:01:43;6.97;;;1.83;;
1601;SDS011;794;48.592;9.634;2023-12-20T13:04:11;5.20;;;1.83;;
1601;SDS011;794;48.592;9.634;2023-12-20T13:06:41;2.13;;;1.50;;
1601;SDS011;794;48.592;9.634;2023-12-20T13:09:15;4.07;;;1.63;;
1601;SDS011;794;48.592;9.634;2023-12-20T13:11:45;1.93;;;1.73;;
1601;SDS011;794;48.592;9.634;2023-12-20T13:14:12;4.10;;;1.80;;
1601;SDS011;794;48.592;9.634;2023-12-20T13:16:48;7.00;;;1.90;;
1601;SDS011;794;48.592;9.634;2023-12-20T13:19:17;3.90;;;1.47;;
1601;SDS011;794;48.592;9.634;2023-12-20T13:21:46;3.70;;;1.50;;
1601;SDS011;794;48.592;9.634;2023-12-20T13:24:15;4.17;;;1.63;;
1601;SDS011;794;48.592;9.634;2023-12-20T13:26:43;4.50;;;1.93;;
1601;SDS011;794;48.592;9.634;2023-12-20T13:29:10;3.80;;;1.77;;
1601;SDS011;794;48.592;9.634;2023-12-20T13:31:41;5.23;;;3.03;;
1601;SDS011;794;48.592;9.634;2023-12-20T13:34:08;2.60;;;1.83;;
1601;SDS011;794;48.592;9.634;2023-12-20T13:36:35;2.20;;;1.73;;
1601;SDS011;794;48.592;9.634;2023-12-20T13:39:18;8.50;;;2.50;;
1601;SDS011;794;48.592;9.634;2023-12-20T13:41:55;2.30;;;2.10;;
1601;SDS011;794;48.592;9.634;2023-12-20T13:44:25;2.97;;;1.70;;
1601;SDS011;794;48.592;9.634;2023-12-20T13:46:58;2.30;;;1.43;;
1601;SDS011;794;48.592;9.634;2023-12-20T13:49:26;7.10;;;1.90;;
1601;SDS011;794;48.592;9.634;2023-12-20T13:51:53;4.03;;;1.93;;
1601;SDS011;794;48.592;9.634;2023-12-20T13:54:23;2.10;;;1.30;;
1601;SDS011;794;48.592;9.634;2023-12-20T13:59:36;2.90;;;1.60;;
1601;SDS011;794;48.592;9.634;2023-12-20T14:02:04;1.57;;;0.97;;
1601;SDS011;794;48.592;9.634;2023-12-20T14:04:33;3.33;;;1.13;;
1601;SDS011;794;48.592;9.634;2023-12-20T14:07:00;5.27;;;1.53;;
1601;SDS011;794;48.592;9.634;2023-12-20T14:09:40;5.20;;;1.70;;
1601;SDS011;794;48.592;9.634;2023-12-20T14:12:10;1.97;;;1.37;;
1601;SDS011;794;48.592;9.634;2023-12-20T14:14:39;3.60;;;1.80;;
1601;SDS011;794;48.592;9.634;2023-12-20T14:17:06;3.50;;;2.20;;
1601;SDS011;794;48.592;9.634;2023-12-20T14:19:35;4.83;;;1.63;;
1601;SDS011;794;48.592;9.634;2023-12-20T14:22:06;1.83;;;1.60;;
1601;SDS011;794;48.592;9.634;2023-12-20T14:24:49;4.20;;;1.97;;
1601;SDS011;794;48.592;9.634;2023-12-20T14:27:24;4.77;;;1.70;;
1601;SDS011;794;48.592;9.634;2023-12-20T14:29:53;2.13;;;1.60;;
1601;SDS011;794;48.592;9.634;2023-12-20T14:32:21;2.83;;;2.03;;
1601;SDS011;794;48.592;9.634;2023-12-20T14:34:57;4.10;;;1.43;;
1601;SDS011;794;48.592;9.634;2023-12-20T14:37:27;2.77;;;1.87;;
1601;SDS011;794;48.592;9.634;2023-12-20T14:42:43;6.90;;;1.80;;
1601;SDS011;794;48.592;9.634;2023-12-20T14:45:14;7.00;;;2.30;;
1601;SDS011;794;48.592;9.634;2023-12-20T14:47:44;2.40;;;1.20;;
1601;SDS011;794;48.592;9.634;2023-12-20T14:50:32;3.20;;;1.63;;
1601;SDS011;794;48.592;9.634;2023-12-20T14:53:03;3.63;;;1.93;;
1601;SDS011;794;48.592;9.634;2023-12-20T14:55:38;4.30;;;1.93;;
1601;SDS011;794;48.592;9.634;2023-12-20T14:58:12;2.50;;;1.30;;
1601;SDS011;794;48.592;9.634;2023-12-20T15:00:42;5.10;;;1.60;;
1601;SDS011;794;48.592;9.634;2023-12-20T15:03:17;2.70;;;1.83;;
1601;SDS011;794;48.592;9.634;2023-12-20T15:05:44;6.90;;;2.30;;
1601;SDS011;794;48.592;9.634;2023-12-20T15:08:32;2.30;;;1.50;;
1601;SDS011;794;48.592;9.634;2023-12-20T15:11:10;9.10;;;1.60;;
1601;SDS011;794;48.592;9.634;2023-12-20T15:13:40;5.77;;;2.20;;
1601;SDS011;794;48.592;9.634;2023-12-20T15:19:06;1.57;;;1.43;;
1601;SDS011;794;48.592;9.634;2023-12-20T15:21:35;2.57;;;1.40;;
1601;SDS011;794;48.592;9.634;2023-12-20T15:24:06;4.50;;;1.70;;
1601;SDS011;794;48.592;9.634;2023-12-20T15:26:41;4.63;;;1.90;;
1601;SDS011;794;48.592;9.634;2023-12-20T15:29:11;3.80;;;1.60;;
1601;SDS011;794;48.592;9.634;2023-12-20T15:31:42;4.87;;;2.00;;
1601;SDS011;794;48.592;9.634;2023-12-20T15:34:20;4.17;;;2.20;;
1601;SDS011;794;48.592;9.634;2023-12-20T15:36:51;3.67;;;2.37;;
1601;SDS011;794;48.592;9.634;2023-12-20T15:39:20;10.53;;;3.13;;
1601;SDS011;794;48.592;9.634;2023-12-20T15:41:50;3.27;;;2.97;;
1601;SDS011;794;48.592;9.634;2023-12-20T15:44:18;2.67;;;2.20;;
1601;SDS011;794;48.592;9.634;2023-12-20T15:46:48;2.50;;;2.30;;
1601;SDS011;794;48.592;9.634;2023-12-20T15:49:18;4.90;;;2.27;;
1601;SDS011;794;48.592;9.634;2023-12-20T15:51:46;5.40;;;2.57;;
1601;SDS011;794;48.592;9.634;2023-12-20T15:54:13;4.43;;;2.07;;
1601;SDS011;794;48.592;9.634;2023-12-20T15:56:41;5.10;;;2.50;;
1601;SDS011;794;48.592;9.634;2023-12-20T15:59:11;7.70;;;6.17;;
1601;SDS011;794;48.592;9.634;2023-12-20T16:01:40;5.93;;;4.03;;
1601;SDS011;794;48.592;9.634;2023-12-20T16:04:07;3.93;;;2.93;;
1601;SDS011;794;48.592;9.634;2023-12-20T16:06:34;4.00;;;3.13;;
1601;SDS011;794;48.592;9.634;2023-12-20T16:09:01;12.10;;;8.40;;
1601;SDS011;794;48.592;9.634;2023-12-20T16:11:31;11.27;;;7.87;;
1601;SDS011;794;48.592;9.634;2023-12-20T16:14:04;8.63;;;5.00;;
1601;SDS011;794;48.592;9.634;2023-12-20T16:16:33;6.50;;;5.07;;
1601;SDS011;794;48.592;9.634;2023-12-20T16:19:02;8.80;;;6.80;;
1601;SDS011;794;48.592;9.634;2023-12-20T16:21:29;6.83;;;3.60;;
1601;SDS011;794;48.592;9.634;2023-12-20T16:23:56;2.63;;;2.13;;
1601;SDS011;794;48.592;9.634;2023-12-20T16:26:23;3.67;;;3.23;;